Maersk Dayton — DDSC2 — position and weather

sailwx.info

Track history (hours):
 
Tides and Currents Weather Stations Pressure Air Temp Water Temp Dewpoint Dewpoint Depression Visibility Wind Speed Wind Dir Waves Ship Positions

Maersk Dayton

Last reported at 2014-Jun-19 11:21 UTC. Time now 2014-Aug-01 01:52 UTC.
Position N 49°54' W 003°26'.
Warning: this ship's position is 42 days out of date.

Length 281 m; beam 32.2 m; draft 12.5 m.

Type: Cargo ship. MMSI: 218024000.

Date/timePositionNaut miles runAvg speedWind from/ knotsBaromVisibWave heightAir tempDewpointWater temp
2014-Jun-19 11:21N 49°54' W 003°26'3416.8
2014-Jun-19 09:20N 50°03' W 002°35'1518.3
2014-Jun-19 08:33N 50°06' W 002°13'2019.9
2014-Jun-19 07:33N 50°12' W 001°43'2120.7
2014-Jun-19 06:33N 50°17' W 001°12'2020.4
2014-Jun-19 05:34N 50°23' W 000°42'1919.0
2014-Jun-19 04:33N 50°27' W 000°12'1917.9
2014-Jun-19 03:30N 50°32' E 000°16'1616.7
2014-Jun-19 02:33N 50°37' E 000°39'1616.5
2014-Jun-19 01:33N 50°47' E 001°00'1817.8
2014-Jun-19 00:34N 50°58' E 001°23'2020.4
2014-Jun-18 23:34N 51°13' E 001°45'1616.4
2014-Jun-18 22:34N 51°23' E 002°06'2117.6
2014-Jun-18 21:22N 51°23' E 002°39'1113.7
2014-Jun-18 20:33N 51°23' E 002°57'1717.3
2014-Jun-18 19:33N 51°25' E 003°25'1312.8
2014-Jun-18 18:33N 51°22' E 003°45'1111.1
2014-Jun-18 17:34N 51°24' E 004°02'10 9.7
2014-Jun-18 16:34N 51°20' E 004°16'3 2.5
2014-Jun-18 15:32N 51°18' E 004°16'0 0.0
2014-Jun-18 14:33N 51°18' E 004°16'0 0.0
2014-Jun-18 13:32N 51°18' E 004°16'0 0.0
2014-Jun-18 12:31N 51°18' E 004°16'0 0.0
2014-Jun-18 11:28N 51°18' E 004°16'0 0.0
2014-Jun-18 10:31N 51°18' E 004°16'0 0.0
2014-Jun-18 09:31N 51°18' E 004°16'0 0.0
2014-Jun-18 08:28N 51°18' E 004°16'0 0.0
2014-Jun-18 07:34N 51°18' E 004°16'0 0.0
2014-Jun-18 06:33N 51°18' E 004°16'0 0.0
2014-Jun-18 05:33N 51°18' E 004°16'0 0.0
2014-Jun-18 04:33N 51°18' E 004°16'0 0.0
2014-Jun-18 03:31N 51°18' E 004°16'0 0.0
2014-Jun-18 02:33N 51°18' E 004°16'0 0.0
2014-Jun-18 01:32N 51°18' E 004°16'0 0.0
2014-Jun-18 00:33N 51°18' E 004°16'0 0.0
2014-Jun-17 23:32N 51°18' E 004°16'0 0.0
2014-Jun-17 22:32N 51°18' E 004°16'0 0.0
2014-Jun-17 21:32N 51°18' E 004°16'0 0.0
2014-Jun-17 20:32N 51°18' E 004°16'0 0.0
2014-Jun-17 19:32N 51°18' E 004°16'0 0.0
2014-Jun-17 18:32N 51°18' E 004°16'0 0.0
2014-Jun-17 17:29N 51°18' E 004°16'0 0.0
2014-Jun-17 16:32N 51°18' E 004°16'2 1.8
2014-Jun-17 15:34N 51°19' E 004°16'10 9.8
2014-Jun-17 14:34N 51°23' E 004°02'1010.4
2014-Jun-17 13:34N 51°22' E 003°46'1010.3
2014-Jun-17 12:34N 51°25' E 003°30'1514.9
2014-Jun-17 11:34N 51°24' E 003°06'1514.6
2014-Jun-17 10:34N 51°22' E 002°43'8 7.9
2014-Jun-17 09:33N 51°22' E 002°30'4 4.4
2014-Jun-17 08:33N 51°20' E 002°24'9 8.7
2014-Jun-17 07:33N 51°19' E 002°10'1110.9
2014-Jun-17 06:33N 51°25' E 001°56'1010.1
2014-Jun-17 05:33N 51°34' E 001°49'1110.7
2014-Jun-17 04:33N 51°44' E 001°45'9 9.1
2014-Jun-17 03:33N 51°51' E 001°35'1716.7
2014-Jun-17 02:34N 51°37' E 001°20'1616.2
2014-Jun-17 01:34N 51°29' E 000°58'1514.7
2014-Jun-17 00:34N 51°30' E 000°34'3 2.7
2014-Jun-16 23:32N 51°30' E 000°30'0 0.0
2014-Jun-16 22:32N 51°30' E 000°30'0 0.0
2014-Jun-16 21:33N 51°30' E 000°30'0 0.0
2014-Jun-16 20:34N 51°30' E 000°30'0 0.0
2014-Jun-16 19:32N 51°30' E 000°30'0 0.0
2014-Jun-16 18:32N 51°30' E 000°30'0 0.0
2014-Jun-16 17:33N 51°30' E 000°30'0 0.0
2014-Jun-16 16:33N 51°30' E 000°30'0 0.0
2014-Jun-16 15:32N 51°30' E 000°30'0 0.0
2014-Jun-16 14:32N 51°30' E 000°30'0 0.0
2014-Jun-16 13:33N 51°30' E 000°30'0 0.0
2014-Jun-16 12:28N 51°30' E 000°30'0 0.0
2014-Jun-16 11:33N 51°30' E 000°30'0 0.0
2014-Jun-16 10:33N 51°30' E 000°30'2 1.6
2014-Jun-16 09:33N 51°30' E 000°33'1010.3
2014-Jun-16 08:33N 51°29' E 000°49'1615.8
2014-Jun-16 07:33N 51°34' E 001°13'1918.8
2014-Jun-16 06:34N 51°48' E 001°33'8 8.5
2014-Jun-16 05:34N 51°53' E 001°44'4 4.5
2014-Jun-16 04:34N 51°58' E 001°47'1615.6
2014-Jun-16 03:34N 52°09' E 002°04'1615.8
2014-Jun-16 02:32N 52°19' E 002°24'1915.6
2014-Jun-16 01:21N 52°31' E 002°48'1215.5
2014-Jun-16 00:32N 52°39' E 003°03'610.9
2014-Jun-16 00:00N 52°42' E 003°12'921.1 110 / 131027.0 5.4 1.015.0 9.714.3
2014-Jun-15 23:33N 52°47' E 003°24'2015.5
2014-Jun-15 22:18N 52°56' E 003°53'1515.6
2014-Jun-15 21:21N 53°05' E 004°13'1214.9
2014-Jun-15 20:31N 53°14' E 004°27'1415.0
2014-Jun-15 19:34N 53°28' E 004°35'1514.6
2014-Jun-15 18:34N 53°33' E 004°58'1515.3
2014-Jun-15 17:33N 53°38' E 005°23'1716.7
2014-Jun-15 16:33N 53°43' E 005°49'1717.2
2014-Jun-15 15:33N 53°49' E 006°17'1817.1
2014-Jun-15 14:30N 53°54' E 006°46'3116.0
2014-Jun-15 12:34N 54°01' E 007°38'1515.4
2014-Jun-15 11:34N 54°01' E 008°04'1212.2
2014-Jun-15 10:33N 53°59' E 008°24'1312.6
2014-Jun-15 09:33N 53°53' E 008°43'1313.5
2014-Jun-15 08:33N 53°53' E 009°06'1211.7
2014-Jun-15 07:34N 53°47' E 009°23'1313.4
2014-Jun-15 06:33N 53°36' E 009°35'1111.1
2014-Jun-15 05:33N 53°33' E 009°53'1 1.2
2014-Jun-15 04:31N 53°32' E 009°55'0 0.0
2014-Jun-15 03:31N 53°32' E 009°55'0 0.0
2014-Jun-15 02:32N 53°32' E 009°55'0 0.0
2014-Jun-15 01:33N 53°32' E 009°55'0 0.0
2014-Jun-15 00:33N 53°32' E 009°55'0 0.0
2014-Jun-14 23:33N 53°32' E 009°55'0 0.0
2014-Jun-14 22:33N 53°32' E 009°55'0 0.0
2014-Jun-14 21:33N 53°32' E 009°55'0 0.0
2014-Jun-14 20:33N 53°32' E 009°55'0 0.0
2014-Jun-14 19:32N 53°32' E 009°55'0 0.0
2014-Jun-14 18:34N 53°32' E 009°55'0 0.0
2014-Jun-14 17:31N 53°32' E 009°55'0 0.0
2014-Jun-14 16:33N 53°32' E 009°55'0 0.0
2014-Jun-14 15:33N 53°32' E 009°55'0 0.0
2014-Jun-14 14:31N 53°32' E 009°55'0 0.0
2014-Jun-14 13:31N 53°32' E 009°55'0 0.0
2014-Jun-14 12:31N 53°32' E 009°55'0 0.0
2014-Jun-14 11:33N 53°32' E 009°55'0 0.0
2014-Jun-14 10:32N 53°32' E 009°55'0 0.0
2014-Jun-14 09:33N 53°32' E 009°55'0 0.1
2014-Jun-14 08:33N 53°32' E 009°55'0 0.0
2014-Jun-14 07:33N 53°32' E 009°55'0 0.0
2014-Jun-14 06:34N 53°32' E 009°55'0 0.0
2014-Jun-14 05:33N 53°32' E 009°55'0 0.4
2014-Jun-14 04:33N 53°32' E 009°54'6 6.2
2014-Jun-14 03:33N 53°34' E 009°44'9 9.0
2014-Jun-14 02:33N 53°38' E 009°31'1211.7
2014-Jun-14 01:33N 53°49' E 009°22'1110.8
2014-Jun-14 00:33N 53°52' E 009°05'1211.6
2014-Jun-13 23:33N 53°51' E 008°45'1413.9
2014-Jun-13 22:34N 53°59' E 008°26'1413.8
2014-Jun-13 21:33N 53°60' E 008°02'1615.9
2014-Jun-13 20:33N 54°04' E 007°36'4 4.2
2014-Jun-13 19:33N 54°02' E 007°29'0 0.0
2014-Jun-13 18:33N 54°02' E 007°29'0 0.1
2014-Jun-13 17:34N 54°02' E 007°29'0 0.0
2014-Jun-13 16:34N 54°02' E 007°29'0 0.0
2014-Jun-13 15:33N 54°02' E 007°29'0 0.0
2014-Jun-13 14:31N 54°02' E 007°29'0 0.0
2014-Jun-13 13:24N 54°02' E 007°29'0 0.1
2014-Jun-13 12:31N 54°02' E 007°29'25 8.2
2014-Jun-13 09:31N 53°50' E 006°53'9 9.5
2014-Jun-13 08:33N 53°48' E 006°38'10 9.7
2014-Jun-13 07:32N 53°45' E 006°22'1010.5
2014-Jun-13 06:34N 53°42' E 006°05'2020.2
2014-Jun-13 05:34N 53°36' E 005°33'1413.5
2014-Jun-13 04:33N 53°32' E 005°11'1211.9
2014-Jun-13 03:33N 53°27' E 004°53'1111.2
2014-Jun-13 02:34N 53°20' E 004°39'1211.9
2014-Jun-13 01:33N 53°09' E 004°30'1211.6
2014-Jun-13 00:33N 52°59' E 004°20'1221.3
2014-Jun-13 00:00N 52°48' E 004°12'0 1.0 200 / 121026.010.8 14.513.314.9
2014-Jun-12 23:33N 52°48' E 004°13'1211.6
2014-Jun-12 22:33N 52°39' E 004°00'1111.1
2014-Jun-12 21:33N 52°29' E 003°54'1111.2
2014-Jun-12 20:33N 52°18' E 003°52'1212.0
2014-Jun-12 19:34N 52°06' E 003°54'10 9.8
2014-Jun-12 18:33N 51°59' E 004°05'1211.8
2014-Jun-12 17:34N 51°54' E 004°23'1 1.2
2014-Jun-12 16:32N 51°53' E 004°24'0 0.0
2014-Jun-12 15:32N 51°53' E 004°24'0 0.0
2014-Jun-12 14:33N 51°53' E 004°24'0 0.0
2014-Jun-12 13:33N 51°53' E 004°24'0 0.0
2014-Jun-12 12:33N 51°53' E 004°24'0 0.0
2014-Jun-12 11:30N 51°53' E 004°24'0 0.0
2014-Jun-12 10:33N 51°53' E 004°24'0 0.0
2014-Jun-12 09:33N 51°53' E 004°24'0 0.0
2014-Jun-12 08:33N 51°53' E 004°24'0 0.0
2014-Jun-12 07:33N 51°53' E 004°24'0 0.0
2014-Jun-12 06:33N 51°53' E 004°24'0 0.0
2014-Jun-12 05:33N 51°53' E 004°24'0 0.0
2014-Jun-12 04:33N 51°53' E 004°24'0 0.0
2014-Jun-12 03:32N 51°53' E 004°24'0 0.0
2014-Jun-12 02:33N 51°53' E 004°24'0 0.0
2014-Jun-12 01:33N 51°53' E 004°24'0 0.0
2014-Jun-12 00:33N 51°53' E 004°24'0 0.0
2014-Jun-11 23:33N 51°53' E 004°24'0 0.0
2014-Jun-11 22:31N 51°53' E 004°24'0 0.0
2014-Jun-11 21:31N 51°53' E 004°24'0 0.0
2014-Jun-11 20:31N 51°53' E 004°24'0 0.0
2014-Jun-11 19:31N 51°53' E 004°24'0 0.0
2014-Jun-11 18:28N 51°53' E 004°24'0 0.0
2014-Jun-11 17:28N 51°53' E 004°24'0 0.0
2014-Jun-11 16:28N 51°53' E 004°24'0 0.0
2014-Jun-11 15:31N 51°53' E 004°24'0 0.0
2014-Jun-11 14:33N 51°53' E 004°24'1 1.0
2014-Jun-11 13:34N 51°54' E 004°23'8 7.6
2014-Jun-11 12:33N 51°56' E 004°12'8 8.2
2014-Jun-11 11:33N 52°00' E 003°60'7 6.7
2014-Jun-11 10:33N 51°60' E 003°49'10 9.7
2014-Jun-11 09:34N 51°57' E 003°34'8 8.5
2014-Jun-11 08:34N 51°54' E 003°21'8 8.2
2014-Jun-11 07:32N 51°52' E 003°08'1010.1
2014-Jun-11 06:33N 51°49' E 002°52'10 9.9
2014-Jun-11 05:33N 51°46' E 002°38'1312.8
2014-Jun-11 04:33N 51°36' E 002°23'1616.4
2014-Jun-11 03:33N 51°22' E 002°10'1615.7
2014-Jun-11 02:33N 51°11' E 001°53'1717.2
2014-Jun-11 01:33N 50°60' E 001°32'1717.3
2014-Jun-11 00:34N 50°44' E 001°22'1717.1
2014-Jun-10 23:33N 50°33' E 001°01'2017.0
2014-Jun-10 22:21N 50°26' E 000°30'5017.5
2014-Jun-10 19:30N 50°12' W 000°45'1819.4
2014-Jun-10 18:33N 50°08' W 001°12'2020.0
2014-Jun-10 17:34N 50°02' W 001°42'2020.0
2014-Jun-10 16:33N 49°58' W 002°13'7917.2
2014-Jun-10 12:00N 49°42' W 004°12'11919.9 270 / 311019.0 5.4 2.015.512.114.3
2014-Jun-10 06:00N 49°18' W 007°12'6911.5 260 / 341010.5 5.4 1.013.511.813.5
2014-Jun-10 00:00N 49°00' W 008°54'   260 / 301009.010.8 2.014.011.913.1
Track history (hours):
 
Tides and Currents Weather Stations Pressure Air Temp Water Temp Dewpoint Dewpoint Depression Visibility Wind Speed Wind Dir Waves Ship Positions

Maersk Dayton

Last reported at 2014-Jun-19 11:21 UTC. Time now 2014-Aug-01 01:52 UTC.
Position N 49°54' W 003°26'.
Warning: this ship's position is 42 days out of date.

Length 281 m; beam 32.2 m; draft 12.5 m.

Type: Cargo ship. MMSI: 218024000.

Date/timePositionNaut miles runAvg speedWind from/ knotsBaromVisibWave heightAir tempDewpointWater temp
2014-Jun-19 11:21N 49°54' W 003°26'3416.8
2014-Jun-19 09:20N 50°03' W 002°35'1518.3
2014-Jun-19 08:33N 50°06' W 002°13'2019.9
2014-Jun-19 07:33N 50°12' W 001°43'2120.7
2014-Jun-19 06:33N 50°17' W 001°12'2020.4
2014-Jun-19 05:34N 50°23' W 000°42'1919.0
2014-Jun-19 04:33N 50°27' W 000°12'1917.9
2014-Jun-19 03:30N 50°32' E 000°16'1616.7
2014-Jun-19 02:33N 50°37' E 000°39'1616.5
2014-Jun-19 01:33N 50°47' E 001°00'1817.8
2014-Jun-19 00:34N 50°58' E 001°23'2020.4
2014-Jun-18 23:34N 51°13' E 001°45'1616.4
2014-Jun-18 22:34N 51°23' E 002°06'2117.6
2014-Jun-18 21:22N 51°23' E 002°39'1113.7
2014-Jun-18 20:33N 51°23' E 002°57'1717.3
2014-Jun-18 19:33N 51°25' E 003°25'1312.8
2014-Jun-18 18:33N 51°22' E 003°45'1111.1
2014-Jun-18 17:34N 51°24' E 004°02'10 9.7
2014-Jun-18 16:34N 51°20' E 004°16'3 2.5
2014-Jun-18 15:32N 51°18' E 004°16'0 0.0
2014-Jun-18 14:33N 51°18' E 004°16'0 0.0
2014-Jun-18 13:32N 51°18' E 004°16'0 0.0
2014-Jun-18 12:31N 51°18' E 004°16'0 0.0
2014-Jun-18 11:28N 51°18' E 004°16'0 0.0
2014-Jun-18 10:31N 51°18' E 004°16'0 0.0
2014-Jun-18 09:31N 51°18' E 004°16'0 0.0
2014-Jun-18 08:28N 51°18' E 004°16'0 0.0
2014-Jun-18 07:34N 51°18' E 004°16'0 0.0
2014-Jun-18 06:33N 51°18' E 004°16'0 0.0
2014-Jun-18 05:33N 51°18' E 004°16'0 0.0
2014-Jun-18 04:33N 51°18' E 004°16'0 0.0
2014-Jun-18 03:31N 51°18' E 004°16'0 0.0
2014-Jun-18 02:33N 51°18' E 004°16'0 0.0
2014-Jun-18 01:32N 51°18' E 004°16'0 0.0
2014-Jun-18 00:33N 51°18' E 004°16'0 0.0
2014-Jun-17 23:32N 51°18' E 004°16'0 0.0
2014-Jun-17 22:32N 51°18' E 004°16'0 0.0
2014-Jun-17 21:32N 51°18' E 004°16'0 0.0
2014-Jun-17 20:32N 51°18' E 004°16'0 0.0
2014-Jun-17 19:32N 51°18' E 004°16'0 0.0
2014-Jun-17 18:32N 51°18' E 004°16'0 0.0
2014-Jun-17 17:29N 51°18' E 004°16'0 0.0
2014-Jun-17 16:32N 51°18' E 004°16'2 1.8
2014-Jun-17 15:34N 51°19' E 004°16'10 9.8
2014-Jun-17 14:34N 51°23' E 004°02'1010.4
2014-Jun-17 13:34N 51°22' E 003°46'1010.3
2014-Jun-17 12:34N 51°25' E 003°30'1514.9
2014-Jun-17 11:34N 51°24' E 003°06'1514.6
2014-Jun-17 10:34N 51°22' E 002°43'8 7.9
2014-Jun-17 09:33N 51°22' E 002°30'4 4.4
2014-Jun-17 08:33N 51°20' E 002°24'9 8.7
2014-Jun-17 07:33N 51°19' E 002°10'1110.9
2014-Jun-17 06:33N 51°25' E 001°56'1010.1
2014-Jun-17 05:33N 51°34' E 001°49'1110.7
2014-Jun-17 04:33N 51°44' E 001°45'9 9.1
2014-Jun-17 03:33N 51°51' E 001°35'1716.7
2014-Jun-17 02:34N 51°37' E 001°20'1616.2
2014-Jun-17 01:34N 51°29' E 000°58'1514.7
2014-Jun-17 00:34N 51°30' E 000°34'3 2.7
2014-Jun-16 23:32N 51°30' E 000°30'0 0.0
2014-Jun-16 22:32N 51°30' E 000°30'0 0.0
2014-Jun-16 21:33N 51°30' E 000°30'0 0.0
2014-Jun-16 20:34N 51°30' E 000°30'0 0.0
2014-Jun-16 19:32N 51°30' E 000°30'0 0.0
2014-Jun-16 18:32N 51°30' E 000°30'0 0.0
2014-Jun-16 17:33N 51°30' E 000°30'0 0.0
2014-Jun-16 16:33N 51°30' E 000°30'0 0.0
2014-Jun-16 15:32N 51°30' E 000°30'0 0.0
2014-Jun-16 14:32N 51°30' E 000°30'0 0.0
2014-Jun-16 13:33N 51°30' E 000°30'0 0.0
2014-Jun-16 12:28N 51°30' E 000°30'0 0.0
2014-Jun-16 11:33N 51°30' E 000°30'0 0.0
2014-Jun-16 10:33N 51°30' E 000°30'2 1.6
2014-Jun-16 09:33N 51°30' E 000°33'1010.3
2014-Jun-16 08:33N 51°29' E 000°49'1615.8
2014-Jun-16 07:33N 51°34' E 001°13'1918.8
2014-Jun-16 06:34N 51°48' E 001°33'8 8.5
2014-Jun-16 05:34N 51°53' E 001°44'4 4.5
2014-Jun-16 04:34N 51°58' E 001°47'1615.6
2014-Jun-16 03:34N 52°09' E 002°04'1615.8
2014-Jun-16 02:32N 52°19' E 002°24'1915.6
2014-Jun-16 01:21N 52°31' E 002°48'1215.5
2014-Jun-16 00:32N 52°39' E 003°03'610.9
2014-Jun-16 00:00N 52°42' E 003°12'921.1 110 / 131027.0 5.4 1.015.0 9.714.3
2014-Jun-15 23:33N 52°47' E 003°24'2015.5
2014-Jun-15 22:18N 52°56' E 003°53'1515.6
2014-Jun-15 21:21N 53°05' E 004°13'1214.9
2014-Jun-15 20:31N 53°14' E 004°27'1415.0
2014-Jun-15 19:34N 53°28' E 004°35'1514.6
2014-Jun-15 18:34N 53°33' E 004°58'1515.3
2014-Jun-15 17:33N 53°38' E 005°23'1716.7
2014-Jun-15 16:33N 53°43' E 005°49'1717.2
2014-Jun-15 15:33N 53°49' E 006°17'1817.1
2014-Jun-15 14:30N 53°54' E 006°46'3116.0
2014-Jun-15 12:34N 54°01' E 007°38'1515.4
2014-Jun-15 11:34N 54°01' E 008°04'1212.2
2014-Jun-15 10:33N 53°59' E 008°24'1312.6
2014-Jun-15 09:33N 53°53' E 008°43'1313.5
2014-Jun-15 08:33N 53°53' E 009°06'1211.7
2014-Jun-15 07:34N 53°47' E 009°23'1313.4
2014-Jun-15 06:33N 53°36' E 009°35'1111.1
2014-Jun-15 05:33N 53°33' E 009°53'1 1.2
2014-Jun-15 04:31N 53°32' E 009°55'0 0.0
2014-Jun-15 03:31N 53°32' E 009°55'0 0.0
2014-Jun-15 02:32N 53°32' E 009°55'0 0.0
2014-Jun-15 01:33N 53°32' E 009°55'0 0.0
2014-Jun-15 00:33N 53°32' E 009°55'0 0.0
2014-Jun-14 23:33N 53°32' E 009°55'0 0.0
2014-Jun-14 22:33N 53°32' E 009°55'0 0.0
2014-Jun-14 21:33N 53°32' E 009°55'0 0.0
2014-Jun-14 20:33N 53°32' E 009°55'0 0.0
2014-Jun-14 19:32N 53°32' E 009°55'0 0.0
2014-Jun-14 18:34N 53°32' E 009°55'0 0.0
2014-Jun-14 17:31N 53°32' E 009°55'0 0.0
2014-Jun-14 16:33N 53°32' E 009°55'0 0.0
2014-Jun-14 15:33N 53°32' E 009°55'0 0.0
2014-Jun-14 14:31N 53°32' E 009°55'0 0.0
2014-Jun-14 13:31N 53°32' E 009°55'0 0.0
2014-Jun-14 12:31N 53°32' E 009°55'0 0.0
2014-Jun-14 11:33N 53°32' E 009°55'0 0.0
2014-Jun-14 10:32N 53°32' E 009°55'0 0.0
2014-Jun-14 09:33N 53°32' E 009°55'0 0.1
2014-Jun-14 08:33N 53°32' E 009°55'0 0.0
2014-Jun-14 07:33N 53°32' E 009°55'0 0.0
2014-Jun-14 06:34N 53°32' E 009°55'0 0.0
2014-Jun-14 05:33N 53°32' E 009°55'0 0.4
2014-Jun-14 04:33N 53°32' E 009°54'6 6.2
2014-Jun-14 03:33N 53°34' E 009°44'9 9.0
2014-Jun-14 02:33N 53°38' E 009°31'1211.7
2014-Jun-14 01:33N 53°49' E 009°22'1110.8
2014-Jun-14 00:33N 53°52' E 009°05'1211.6
2014-Jun-13 23:33N 53°51' E 008°45'1413.9
2014-Jun-13 22:34N 53°59' E 008°26'1413.8
2014-Jun-13 21:33N 53°60' E 008°02'1615.9
2014-Jun-13 20:33N 54°04' E 007°36'4 4.2
2014-Jun-13 19:33N 54°02' E 007°29'0 0.0
2014-Jun-13 18:33N 54°02' E 007°29'0 0.1
2014-Jun-13 17:34N 54°02' E 007°29'0 0.0
2014-Jun-13 16:34N 54°02' E 007°29'0 0.0
2014-Jun-13 15:33N 54°02' E 007°29'0 0.0
2014-Jun-13 14:31N 54°02' E 007°29'0 0.0
2014-Jun-13 13:24N 54°02' E 007°29'0 0.1
2014-Jun-13 12:31N 54°02' E 007°29'25 8.2
2014-Jun-13 09:31N 53°50' E 006°53'9 9.5
2014-Jun-13 08:33N 53°48' E 006°38'10 9.7
2014-Jun-13 07:32N 53°45' E 006°22'1010.5
2014-Jun-13 06:34N 53°42' E 006°05'2020.2
2014-Jun-13 05:34N 53°36' E 005°33'1413.5
2014-Jun-13 04:33N 53°32' E 005°11'1211.9
2014-Jun-13 03:33N 53°27' E 004°53'1111.2
2014-Jun-13 02:34N 53°20' E 004°39'1211.9
2014-Jun-13 01:33N 53°09' E 004°30'1211.6
2014-Jun-13 00:33N 52°59' E 004°20'1221.3
2014-Jun-13 00:00N 52°48' E 004°12'0 1.0 200 / 121026.010.8 14.513.314.9
2014-Jun-12 23:33N 52°48' E 004°13'1211.6
2014-Jun-12 22:33N 52°39' E 004°00'1111.1
2014-Jun-12 21:33N 52°29' E 003°54'1111.2
2014-Jun-12 20:33N 52°18' E 003°52'1212.0
2014-Jun-12 19:34N 52°06' E 003°54'10 9.8
2014-Jun-12 18:33N 51°59' E 004°05'1211.8
2014-Jun-12 17:34N 51°54' E 004°23'1 1.2
2014-Jun-12 16:32N 51°53' E 004°24'0 0.0
2014-Jun-12 15:32N 51°53' E 004°24'0 0.0
2014-Jun-12 14:33N 51°53' E 004°24'0 0.0
2014-Jun-12 13:33N 51°53' E 004°24'0 0.0
2014-Jun-12 12:33N 51°53' E 004°24'0 0.0
2014-Jun-12 11:30N 51°53' E 004°24'0 0.0
2014-Jun-12 10:33N 51°53' E 004°24'0 0.0
2014-Jun-12 09:33N 51°53' E 004°24'0 0.0
2014-Jun-12 08:33N 51°53' E 004°24'0 0.0
2014-Jun-12 07:33N 51°53' E 004°24'0 0.0
2014-Jun-12 06:33N 51°53' E 004°24'0 0.0
2014-Jun-12 05:33N 51°53' E 004°24'0 0.0
2014-Jun-12 04:33N 51°53' E 004°24'0 0.0
2014-Jun-12 03:32N 51°53' E 004°24'0 0.0
2014-Jun-12 02:33N 51°53' E 004°24'0 0.0
2014-Jun-12 01:33N 51°53' E 004°24'0 0.0
2014-Jun-12 00:33N 51°53' E 004°24'0 0.0
2014-Jun-11 23:33N 51°53' E 004°24'0 0.0
2014-Jun-11 22:31N 51°53' E 004°24'0 0.0
2014-Jun-11 21:31N 51°53' E 004°24'0 0.0
2014-Jun-11 20:31N 51°53' E 004°24'0 0.0
2014-Jun-11 19:31N 51°53' E 004°24'0 0.0
2014-Jun-11 18:28N 51°53' E 004°24'0 0.0
2014-Jun-11 17:28N 51°53' E 004°24'0 0.0
2014-Jun-11 16:28N 51°53' E 004°24'0 0.0
2014-Jun-11 15:31N 51°53' E 004°24'0 0.0
2014-Jun-11 14:33N 51°53' E 004°24'1 1.0
2014-Jun-11 13:34N 51°54' E 004°23'8 7.6
2014-Jun-11 12:33N 51°56' E 004°12'8 8.2
2014-Jun-11 11:33N 52°00' E 003°60'7 6.7
2014-Jun-11 10:33N 51°60' E 003°49'10 9.7
2014-Jun-11 09:34N 51°57' E 003°34'8 8.5
2014-Jun-11 08:34N 51°54' E 003°21'8 8.2
2014-Jun-11 07:32N 51°52' E 003°08'1010.1
2014-Jun-11 06:33N 51°49' E 002°52'10 9.9
2014-Jun-11 05:33N 51°46' E 002°38'1312.8
2014-Jun-11 04:33N 51°36' E 002°23'1616.4
2014-Jun-11 03:33N 51°22' E 002°10'1615.7
2014-Jun-11 02:33N 51°11' E 001°53'1717.2
2014-Jun-11 01:33N 50°60' E 001°32'1717.3
2014-Jun-11 00:34N 50°44' E 001°22'1717.1
2014-Jun-10 23:33N 50°33' E 001°01'2017.0
2014-Jun-10 22:21N 50°26' E 000°30'5017.5
2014-Jun-10 19:30N 50°12' W 000°45'1819.4
2014-Jun-10 18:33N 50°08' W 001°12'2020.0
2014-Jun-10 17:34N 50°02' W 001°42'2020.0
2014-Jun-10 16:33N 49°58' W 002°13'7917.2
2014-Jun-10 12:00N 49°42' W 004°12'11919.9 270 / 311019.0 5.4 2.015.512.114.3
2014-Jun-10 06:00N 49°18' W 007°12'6911.5 260 / 341010.5 5.4 1.013.511.813.5
2014-Jun-10 00:00N 49°00' W 008°54'   260 / 301009.010.8 2.014.011.913.1

Dump ship's entire track history